CYIN

Bleibler Ranch

Bleibler Ranch, British Columbia, Canada
METAR CYIN 172100Z AUTO 35009KT 1/2SM SN VV011 M07/M09 A2941 RMK SLP020
Observed Flight Rules
Feb-17 @ 21:00 UTC (33 minutes ago) Instrument Flight Rules
Wind Visibility Clouds Conditions
350° at 9 knots 1/2 miles
  • Vertical visibility at 1,100' AGL
  • Snow
Temperatures Readings
Current -7°C / 19°F
Dewpoint -9°C / 16°F
Humidity 86%
Altimeter 29.41" Hg
Pressure 1002 hPa
Elevation 1128
METAR CYIN 172100Z AUTO 35009KT 1/2SM SN VV011 M07/M09 A2941 RMK SLP020
Observed Flight Rules
Feb-17 @ 21:00 UTC
(33 minutes ago)
LIFR
Wind Visibility
350° at 9 knots 1/2 miles
Clouds
  • Vertical visibility at 1,100' AGL
Conditions
  • Snow
Temperature Dewpoint
-7°C / 19°F -9°C / 16°F
Humidity Altimeter Pressure
86% 29.41" Hg 1002 hPa